Time;durP1;ratioP1;P1;durP2;ratioP2;P2;SDS_P1;SDS_P2;PMS_P1;PMS_P2;Temp;Humidity;BMP_temperature;BMP_pressure;BME280_temperature;BME280_humidity;BME280_pressure;Samples;Min_cycle;Max_cycle;Signal;HPM_P1;HPM_P2
2023/02/02 00:01:40;;;;;;;32.03;10.00;;;;;;;-6.26;48.44;99758.94;4805138;29;20058;-90
2023/02/02 00:04:06;;;;;;;23.33;9.43;;;;;;;-6.16;48.11;99764.97;4789875;30;20039;-87
2023/02/02 00:06:32;;;;;;;17.42;8.50;;;;;;;-6.16;47.94;99759.75;4790106;30;20139;-93
2023/02/02 00:09:00;;;;;;;22.65;9.60;;;;;;;-6.15;47.75;99772.75;4790793;30;20070;-91
2023/02/02 00:11:27;;;;;;;22.10;8.93;;;;;;;-6.15;47.84;99766.69;4797221;30;20055;-87
2023/02/02 00:13:53;;;;;;;29.55;11.48;;;;;;;-6.14;47.83;99758.84;4792972;29;20070;-87
2023/02/02 00:16:43;;;;;;;29.08;11.77;;;;;;;-6.20;47.89;99758.06;4788680;29;20047;-86
2023/02/02 00:19:17;;;;;;;24.77;12.45;;;;;;;-6.34;47.72;99752.91;4795154;29;20154;-89
2023/02/02 00:21:44;;;;;;;27.52;13.55;;;;;;;-6.48;47.23;99757.31;4788096;30;20565;-88
2023/02/02 00:24:11;;;;;;;27.23;14.75;;;;;;;-6.63;47.89;99753.91;4787548;30;20047;-89
2023/02/02 00:26:38;;;;;;;28.55;14.70;;;;;;;-6.77;47.78;99754.81;4803742;29;20063;-90
2023/02/02 00:29:05;;;;;;;29.65;15.20;;;;;;;-6.87;47.85;99760.06;4789063;29;20055;-89
2023/02/02 00:31:31;;;;;;;29.73;16.17;;;;;;;-6.95;48.24;99753.16;4787825;30;20427;-89
2023/02/02 00:33:59;;;;;;;32.33;15.60;;;;;;;-7.00;48.16;99753.16;4787607;30;20229;-89
2023/02/02 00:36:25;;;;;;;22.58;13.40;;;;;;;-6.98;48.57;99751.44;4802809;29;20057;-89
2023/02/02 00:38:52;;;;;;;19.23;9.80;;;;;;;-6.91;48.52;99744.50;4787313;30;20078;-89
2023/02/02 00:41:18;;;;;;;19.65;10.85;;;;;;;-6.87;48.91;99739.28;4768771;30;20063;-89
2023/02/02 00:45:14;;;;;;;22.40;11.15;;;;;;;-6.87;48.83;99722.81;4739111;30;20052;-89
2023/02/02 00:46:30;;;;;;;31.40;14.77;;;;;;;-6.72;48.65;99735.75;4768282;30;20056;-89
2023/02/02 00:48:56;;;;;;;17.98;9.60;;;;;;;-6.68;48.64;99745.25;4771394;30;20073;-89
2023/02/02 00:51:22;;;;;;;12.48;7.63;;;;;;;-6.59;48.96;99746.94;4761678;30;20536;-88
2023/02/02 00:53:48;;;;;;;12.68;7.05;;;;;;;-6.46;48.51;99734.78;4766630;30;20078;-90
2023/02/02 00:56:14;;;;;;;14.60;8.23;;;;;;;-6.43;48.18;99734.72;4766753;30;20107;-88
2023/02/02 00:58:40;;;;;;;22.48;9.75;;;;;;;-6.33;48.31;99739.03;4754036;30;20051;-89
2023/02/02 01:01:15;;;;;;;11.10;6.40;;;;;;;-6.28;48.18;99734.69;4766111;30;20093;-89
2023/02/02 01:03:40;;;;;;;17.17;7.30;;;;;;;-6.21;48.07;99731.13;4744958;30;20126;-88
2023/02/02 01:06:06;;;;;;;27.58;11.43;;;;;;;-6.17;47.77;99745.00;4741893;30;20211;-90
2023/02/02 01:08:32;;;;;;;31.08;15.85;;;;;;;-6.15;47.67;99741.53;4771798;30;20067;-88
2023/02/02 01:10:59;;;;;;;11.02;7.28;;;;;;;-6.15;47.75;99741.53;4746185;30;20110;-92
2023/02/02 01:13:25;;;;;;;17.02;9.30;;;;;;;-6.11;47.83;99738.03;4788758;30;20052;-90
2023/02/02 01:15:59;;;;;;;10.82;6.35;;;;;;;-6.04;47.63;99738.84;4789276;30;20055;-91
2023/02/02 01:18:25;;;;;;;10.52;6.13;;;;;;;-5.96;47.58;99744.00;4788994;30;20051;-89
2023/02/02 01:21:02;;;;;;;13.80;7.57;;;;;;;-5.86;47.27;99753.47;4788019;30;20082;-86
2023/02/02 01:23:28;;;;;;;11.77;5.90;;;;;;;-5.82;47.10;99742.16;4787659;30;20370;-88
2023/02/02 01:25:58;;;;;;;8.02;4.78;;;;;;;-5.72;47.00;99740.31;4787224;30;20079;-89
2023/02/02 01:28:25;;;;;;;11.18;5.72;;;;;;;-5.67;46.78;99734.22;4786882;29;20051;-87
2023/02/02 01:30:51;;;;;;;19.58;11.35;;;;;;;-5.64;46.83;99728.97;4787983;30;20122;-89
2023/02/02 01:33:18;;;;;;;9.18;6.70;;;;;;;-5.53;46.76;99738.41;4774128;30;20087;-91
2023/02/02 01:35:45;;;;;;;11.40;5.60;;;;;;;-5.48;46.34;99736.66;4802784;29;20083;-91
2023/02/02 01:38:11;;;;;;;15.45;8.23;;;;;;;-5.47;45.96;99736.63;4788017;30;20051;-88
2023/02/02 01:40:44;;;;;;;24.40;11.30;;;;;;;-5.47;45.90;99730.56;4775193;30;20411;-90
2023/02/02 01:43:45;;;;;;;21.15;12.27;;;;;;;-5.41;45.91;99733.13;4774878;30;20497;-91
2023/02/02 01:46:15;;;;;;;12.85;7.20;;;;;;;-5.40;45.70;99732.25;4775452;30;20139;-90
2023/02/02 01:48:46;;;;;;;12.70;6.82;;;;;;;-5.43;46.04;99727.91;4780260;30;20117;-89
2023/02/02 01:51:17;;;;;;;12.57;7.38;;;;;;;-5.44;45.99;99730.53;4776847;30;20100;-90
2023/02/02 01:53:45;;;;;;;12.57;6.63;;;;;;;-5.45;46.15;99739.25;4790584;30;20046;-90
2023/02/02 01:56:16;;;;;;;13.07;6.80;;;;;;;-5.49;45.73;99727.09;4792152;30;20055;-88
2023/02/02 01:58:44;;;;;;;14.27;7.07;;;;;;;-5.45;45.87;99739.25;4779658;30;20047;-91
2023/02/02 02:01:10;;;;;;;13.82;6.68;;;;;;;-5.46;45.94;99740.09;4778509;30;20051;-89
2023/02/02 02:03:36;;;;;;;14.70;7.35;;;;;;;-5.49;46.10;99733.19;4811464;29;20063;-89
2023/02/02 02:06:07;;;;;;;16.08;8.40;;;;;;;-5.51;45.99;99736.69;4799905;30;20047;-91
2023/02/02 02:09:03;;;;;;;15.85;8.10;;;;;;;-5.50;45.65;99746.22;4808161;29;20059;-90
2023/02/02 02:11:31;;;;;;;18.85;9.75;;;;;;;-5.54;45.91;99742.78;4772080;30;20057;-89
2023/02/02 02:17:13;;;;;;;39.63;22.88;;;;;;;-5.66;45.81;99741.13;4779377;30;20139;-91
2023/02/02 02:26:37;;;;;;;29.13;14.35;;;;;;;-5.85;46.43;99747.38;4800433;30;20085;-91
2023/02/02 02:29:34;;;;;;;19.98;10.68;;;;;;;-5.87;46.53;99736.09;4777752;30;20142;-89
2023/02/02 02:32:07;;;;;;;23.58;11.73;;;;;;;-5.91;46.38;99743.06;4760950;30;20062;-89
2023/02/02 02:34:57;;;;;;;25.88;14.73;;;;;;;-5.92;46.44;99737.91;4746610;30;20051;-93
2023/02/02 02:37:50;;;;;;;26.08;13.27;;;;;;;-5.90;46.57;99738.75;4793462;30;20051;-92
2023/02/02 02:40:34;;;;;;;20.60;11.40;;;;;;;-5.95;46.53;99743.13;4777156;30;20532;-91
2023/02/02 02:43:12;;;;;;;15.95;9.10;;;;;;;-5.98;46.42;99744.03;4766339;30;20066;-92
2023/02/02 02:45:40;;;;;;;20.90;10.20;;;;;;;-5.97;46.78;99744.88;4787257;30;20051;-93
2023/02/02 02:48:09;;;;;;;23.05;10.65;;;;;;;-6.00;46.84;99750.13;4773530;30;20063;-88
2023/02/02 02:50:39;;;;;;;25.35;13.45;;;;;;;-6.01;46.75;99753.59;4762386;30;20062;-90
2023/02/02 02:53:20;;;;;;;42.63;24.25;;;;;;;-6.06;46.58;99760.56;4747282;30;20059;-92
2023/02/02 02:56:14;;;;;;;30.05;16.45;;;;;;;-6.16;46.73;99755.41;4780841;30;20059;-89
2023/02/02 02:59:10;;;;;;;27.98;16.45;;;;;;;-6.17;46.99;99766.72;4734247;30;20052;-88
2023/02/02 03:02:01;;;;;;;17.33;10.43;;;;;;;-6.15;46.95;99764.94;4758407;30;20047;-84
2023/02/02 03:04:50;;;;;;;16.77;9.32;;;;;;;-6.09;47.01;99761.44;4745041;30;20071;-87
2023/02/02 03:07:47;;;;;;;19.55;10.38;;;;;;;-5.98;46.66;99775.25;4785280;30;20161;-87
2023/02/02 03:10:17;;;;;;;15.60;9.07;;;;;;;-5.92;46.78;99767.38;4745595;30;20531;-90
2023/02/02 03:12:53;;;;;;;16.50;9.93;;;;;;;-5.79;46.79;99769.88;4747781;30;20096;-90
2023/02/02 03:15:19;;;;;;;21.98;10.05;;;;;;;-5.66;46.25;99772.38;4776047;30;20059;-89
2023/02/02 03:17:46;;;;;;;18.77;9.88;;;;;;;-5.53;46.29;99772.28;4772721;30;20104;-87
2023/02/02 03:20:12;;;;;;;16.67;10.35;;;;;;;-5.46;46.23;99771.34;4772678;30;20146;-88
2023/02/02 03:22:38;;;;;;;19.98;9.30;;;;;;;-5.36;46.30;99780.84;4787469;30;20108;-91
2023/02/02 03:25:06;;;;;;;17.60;10.07;;;;;;;-5.28;46.02;99784.22;4789324;30;20043;-88
2023/02/02 03:27:32;;;;;;;26.20;11.27;;;;;;;-5.22;45.73;99786.78;4777536;30;20047;-91
2023/02/02 03:29:58;;;;;;;31.73;13.30;;;;;;;-5.17;45.78;99784.13;4804960;29;20166;-90
2023/02/02 03:32:28;;;;;;;22.37;11.20;;;;;;;-5.16;45.40;99778.91;4792898;29;20059;-90
2023/02/02 03:34:54;;;;;;;21.08;11.30;;;;;;;-5.16;45.38;99773.69;4759667;30;20328;-90
2023/02/02 03:37:20;;;;;;;23.83;11.02;;;;;;;-5.18;45.58;99778.06;4788791;30;20503;-92
2023/02/02 03:39:48;;;;;;;23.77;11.30;;;;;;;-5.16;45.43;99773.69;4804870;29;20495;-91
2023/02/02 03:42:14;;;;;;;24.95;12.20;;;;;;;-5.17;45.15;99766.75;4777231;30;20112;-90
2023/02/02 03:44:40;;;;;;;17.27;10.02;;;;;;;-5.31;45.01;99768.63;4799360;30;20047;-92
2023/02/02 03:47:06;;;;;;;25.23;11.00;;;;;;;-5.28;45.28;99789.44;4766624;30;20135;-83
2023/02/02 03:49:32;;;;;;;23.13;10.93;;;;;;;-5.22;45.05;99794.63;4793232;30;20066;-89
2023/02/02 03:51:58;;;;;;;22.23;11.93;;;;;;;-5.08;45.02;99801.41;4794637;30;20051;-82
2023/02/02 03:54:23;;;;;;;26.55;13.07;;;;;;;-5.03;45.13;99800.50;4796559;30;20085;-88
2023/02/02 03:56:49;;;;;;;36.75;13.43;;;;;;;-5.01;45.23;99803.09;4796066;29;20083;-87
2023/02/02 03:59:15;;;;;;;35.30;13.43;;;;;;;-4.89;45.21;99805.56;4795653;30;20054;-89
2023/02/02 04:01:44;;;;;;;51.25;16.73;;;;;;;-4.77;44.96;99800.25;4744531;30;20079;-85
2023/02/02 04:04:10;;;;;;;39.88;15.95;;;;;;;-4.58;44.38;99807.88;4741482;30;20102;-87
2023/02/02 04:06:36;;;;;;;44.67;15.30;;;;;;;-4.49;44.27;99812.97;4756319;30;20059;-90
2023/02/02 04:09:02;;;;;;;38.22;15.73;;;;;;;-4.48;44.36;99799.91;4755197;30;20501;-90
2023/02/02 04:11:29;;;;;;;47.00;16.75;;;;;;;-4.36;44.19;99806.75;4754270;30;20063;-84
2023/02/02 04:13:57;;;;;;;54.47;16.15;;;;;;;-4.35;44.01;99808.47;4739324;30;20059;-83
2023/02/02 04:16:24;;;;;;;41.58;14.73;;;;;;;-4.26;44.03;99804.88;4754437;30;20062;-84
2023/02/02 04:18:50;;;;;;;39.92;13.27;;;;;;;-4.29;43.76;99800.53;4754119;30;20055;-83
2023/02/02 04:21:16;;;;;;;33.17;11.07;;;;;;;-4.07;43.78;99823.78;4739206;30;20051;-85
2023/02/02 04:23:42;;;;;;;31.05;13.27;;;;;;;-4.00;43.82;99812.38;4769089;30;20082;-84
2023/02/02 04:26:08;;;;;;;31.92;12.68;;;;;;;-4.02;44.03;99811.53;4768402;30;20492;-86
2023/02/02 04:28:34;;;;;;;43.40;15.75;;;;;;;-3.95;44.24;99815.75;4754470;30;20052;-86
2023/02/02 04:31:00;;;;;;;45.00;20.58;;;;;;;-4.02;44.48;99803.72;4753444;30;20500;-84
2023/02/02 04:33:27;;;;;;;49.03;21.15;;;;;;;-4.06;44.30;99812.44;4750512;30;20292;-82
2023/02/02 04:35:53;;;;;;;86.30;21.58;;;;;;;-4.25;44.99;99802.25;4769900;30;20162;-82
2023/02/02 04:38:20;;;;;;;46.35;20.73;;;;;;;-4.22;44.90;99815.25;4768598;30;20420;-83
2023/02/02 04:40:47;;;;;;;37.78;17.17;;;;;;;-4.26;44.81;99824.00;4768775;30;20074;-79
2023/02/02 04:43:13;;;;;;;155.50;29.38;;;;;;;-4.22;45.04;99835.28;4769695;30;20105;-83
2023/02/02 04:45:41;;;;;;;30.20;17.20;;;;;;;-4.31;44.89;99828.44;4753952;30;20048;-79
2023/02/02 04:48:07;;;;;;;29.23;12.57;;;;;;;-4.29;44.11;99825.78;4784570;30;20566;-82
2023/02/02 04:50:33;;;;;;;47.90;17.33;;;;;;;-4.22;44.31;99838.75;4758982;30;20496;-84
2023/02/02 04:52:59;;;;;;;46.15;17.75;;;;;;;-4.31;43.98;99825.81;4783428;30;20051;-87
2023/02/02 04:55:28;;;;;;;34.30;13.68;;;;;;;-4.27;43.51;99819.66;4769835;30;20056;-90
2023/02/02 04:57:57;;;;;;;30.90;12.00;;;;;;;-4.09;43.57;99842.06;4783569;30;20062;-87
2023/02/02 05:00:22;;;;;;;19.13;9.77;;;;;;;-4.07;43.59;99829.00;4770668;30;20136;-84
2023/02/02 05:02:48;;;;;;;25.10;10.50;;;;;;;-4.07;43.49;99834.22;4769088;30;20083;-84
2023/02/02 05:05:14;;;;;;;27.30;10.05;;;;;;;-4.01;43.40;99844.59;4769164;30;20051;-85
2023/02/02 05:07:40;;;;;;;15.52;8.13;;;;;;;-4.04;43.39;99836.78;4768671;30;20047;-82
2023/02/02 05:10:07;;;;;;;16.42;8.77;;;;;;;-3.97;43.51;99834.09;4774221;30;20074;-86
2023/02/02 05:12:33;;;;;;;17.38;8.88;;;;;;;-3.90;43.42;99834.88;4787016;29;20058;-85
2023/02/02 05:14:59;;;;;;;16.35;7.18;;;;;;;-3.78;43.54;99834.69;4788597;30;20039;-84
2023/02/02 05:17:26;;;;;;;14.38;7.50;;;;;;;-3.63;43.39;99830.13;4789264;30;20055;-85
2023/02/02 05:19:52;;;;;;;13.02;7.00;;;;;;;-3.51;43.22;99822.09;4786637;30;20058;-82
2023/02/02 05:22:17;;;;;;;11.15;6.63;;;;;;;-3.41;42.95;99818.47;4771541;30;20051;-86
2023/02/02 05:24:46;;;;;;;20.83;7.35;;;;;;;-3.37;42.75;99828.00;4757623;30;20050;-87
2023/02/02 05:27:13;;;;;;;8.13;6.30;;;;;;;-3.25;42.93;99824.31;4801559;29;20046;-84
2023/02/02 05:29:39;;;;;;;12.38;6.60;;;;;;;-3.05;42.41;99826.59;4770867;30;20051;-85
2023/02/02 05:32:04;;;;;;;14.57;6.70;;;;;;;-3.00;42.49;99827.38;4785446;30;20058;-81
2023/02/02 05:34:30;;;;;;;14.30;7.13;;;;;;;-2.96;42.33;99821.22;4758601;30;20048;-83
2023/02/02 05:36:56;;;;;;;12.57;6.80;;;;;;;-2.87;42.53;99834.13;4790429;30;20427;-83
2023/02/02 05:39:22;;;;;;;12.18;7.07;;;;;;;-2.62;42.13;99831.06;4788949;30;20047;-85
2023/02/02 05:41:47;;;;;;;14.25;6.68;;;;;;;-2.47;42.39;99825.53;4788770;30;20124;-84
2023/02/02 05:44:14;;;;;;;9.20;5.90;;;;;;;-2.40;42.17;99832.38;4774814;30;20046;-85
2023/02/02 05:46:40;;;;;;;18.60;7.75;;;;;;;-2.28;42.20;99834.75;4775290;30;20081;-84
2023/02/02 05:49:10;;;;;;;11.68;6.55;;;;;;;-2.20;42.10;99832.84;4790252;30;20055;-83
2023/02/02 05:51:43;;;;;;;;;;;;;;;-2.20;41.34;99840.69;4790268;30;20066;-83
2023/02/02 05:54:09;;;;;;;13.95;6.57;;;;;;;-2.29;41.59;99840.91;4793633;30;19932;-85
2023/02/02 05:56:35;;;;;;;13.50;6.95;;;;;;;-2.26;41.75;99835.59;4789812;30;20063;-84
2023/02/02 05:59:06;;;;;;;13.32;7.72;;;;;;;-2.11;41.60;99841.41;4789242;30;20043;-83
2023/02/02 06:01:32;;;;;;;15.25;7.25;;;;;;;-2.03;41.41;99832.50;4789766;30;20059;-84
2023/02/02 06:03:58;;;;;;;15.25;6.75;;;;;;;-1.99;41.01;99838.53;4804927;29;20055;-84
2023/02/02 06:06:24;;;;;;;13.88;6.85;;;;;;;-2.10;41.22;99837.91;4797682;29;20065;-84
2023/02/02 06:08:50;;;;;;;14.48;6.55;;;;;;;-2.02;41.83;99836.84;4803361;30;20043;-85
2023/02/02 06:11:18;;;;;;;16.92;7.75;;;;;;;-2.04;41.25;99840.38;4801598;30;20053;-85
2023/02/02 06:13:44;;;;;;;18.77;7.95;;;;;;;-2.18;41.76;99838.06;4796560;29;20563;-85
2023/02/02 06:16:10;;;;;;;19.70;6.90;;;;;;;-2.16;42.27;99851.97;4790401;30;20527;-84
2023/02/02 06:18:36;;;;;;;12.15;6.70;;;;;;;-2.00;41.94;99842.91;4789536;30;20065;-85
2023/02/02 06:21:07;;;;;;;10.38;6.55;;;;;;;-2.08;41.86;99843.97;4790117;29;20063;-85
2023/02/02 06:23:33;;;;;;;14.95;6.40;;;;;;;-1.95;41.96;99845.44;4790199;30;20050;-85
2023/02/02 06:25:59;;;;;;;12.63;7.40;;;;;;;-1.78;41.91;99843.31;4774011;30;20415;-85
2023/02/02 06:28:25;;;;;;;12.55;6.97;;;;;;;-1.64;41.31;99845.63;4788255;29;20055;-84
2023/02/02 06:30:51;;;;;;;11.35;7.05;;;;;;;-1.62;41.04;99843.81;4788585;30;20079;-84
2023/02/02 06:33:17;;;;;;;15.68;7.72;;;;;;;-1.54;41.13;99841.91;4789541;30;20404;-86
2023/02/02 06:35:42;;;;;;;12.38;8.05;;;;;;;-1.34;41.23;99844.06;4758761;30;20492;-85
2023/02/02 06:38:09;;;;;;;16.45;7.65;;;;;;;-1.49;40.21;99839.19;4773864;30;20079;-87
2023/02/02 06:40:35;;;;;;;12.45;7.78;;;;;;;-1.16;41.17;99845.41;4789543;30;20053;-87
2023/02/02 06:43:02;;;;;;;19.48;8.43;;;;;;;-0.78;40.76;99841.81;4791242;30;20085;-89
2023/02/02 06:45:29;;;;;;;13.95;7.57;;;;;;;-0.57;39.74;99847.38;4792142;29;20039;-89
2023/02/02 06:48:02;;;;;;;17.85;8.27;;;;;;;-0.48;39.92;99847.16;4775300;30;20475;-87
2023/02/02 06:50:29;;;;;;;18.73;8.00;;;;;;;-0.44;39.40;99848.78;4789506;30;20415;-87
2023/02/02 06:52:55;;;;;;;14.35;7.43;;;;;;;-0.53;39.20;99851.66;4791112;30;20051;-85
2023/02/02 06:55:20;;;;;;;16.08;7.72;;;;;;;-0.47;38.83;99854.13;4776123;30;20105;-85
2023/02/02 06:57:46;;;;;;;14.75;8.68;;;;;;;-0.46;39.27;99857.59;4791477;29;20055;-87
2023/02/02 07:00:13;;;;;;;14.65;7.60;;;;;;;-0.29;39.47;99858.03;4759410;30;20400;-88
2023/02/02 07:02:38;;;;;;;15.75;8.20;;;;;;;-0.07;39.10;99855.66;4773620;30;20071;-88
2023/02/02 07:05:05;;;;;;;20.52;9.40;;;;;;;0.03;38.78;99848.34;4758574;30;20047;-85
2023/02/02 07:07:32;;;;;;;17.25;9.02;;;;;;;0.03;38.74;99850.97;4788078;30;20137;-86
2023/02/02 07:09:58;;;;;;;17.67;9.85;;;;;;;0.03;38.50;99854.47;4787645;30;20154;-86
2023/02/02 07:12:25;;;;;;;17.80;9.88;;;;;;;0.18;39.03;99848.75;4789414;29;20502;-88
2023/02/02 07:14:52;;;;;;;21.20;10.45;;;;;;;0.29;38.66;99856.34;4803004;29;20109;-88
2023/02/02 07:17:21;;;;;;;24.70;10.23;;;;;;;0.39;38.58;99857.78;4787842;30;20055;-86
2023/02/02 07:19:47;;;;;;;21.88;10.25;;;;;;;0.40;38.37;99845.50;4787989;30;20575;-82
2023/02/02 07:22:14;;;;;;;19.98;11.32;;;;;;;0.40;38.48;99842.88;4788304;30;20095;-86
2023/02/02 07:24:40;;;;;;;21.42;11.50;;;;;;;0.45;38.60;99851.47;4773452;30;20457;-87
2023/02/02 07:27:09;;;;;;;28.00;12.50;;;;;;;0.27;38.23;99842.38;4788120;30;20047;-86
2023/02/02 07:29:35;;;;;;;30.90;13.48;;;;;;;0.21;38.64;99838.16;4787721;29;20046;-86
2023/02/02 07:32:01;;;;;;;26.52;13.63;;;;;;;0.31;38.65;99846.66;4772843;30;20043;-88
2023/02/02 07:34:27;;;;;;;27.58;13.60;;;;;;;0.40;39.02;99848.13;4802487;29;20427;-86
2023/02/02 07:36:52;;;;;;;26.35;13.30;;;;;;;0.53;38.15;99838.97;4802680;29;20107;-86
2023/02/02 07:39:18;;;;;;;26.27;13.98;;;;;;;0.56;37.86;99838.84;4788857;30;20055;-88
2023/02/02 07:41:44;;;;;;;30.67;13.90;;;;;;;0.51;37.37;99840.78;4787809;30;20534;-85
2023/02/02 07:44:22;;;;;;;33.50;15.63;;;;;;;0.61;38.36;99830.84;4803219;29;20066;-86
2023/02/02 07:46:48;;;;;;;32.95;16.38;;;;;;;0.67;38.20;99827.97;4790203;30;20047;-87
2023/02/02 07:49:17;;;;;;;26.38;13.82;;;;;;;0.80;38.54;99833.75;4792019;29;20413;-87
2023/02/02 07:51:44;;;;;;;31.83;15.10;;;;;;;0.80;38.71;99831.09;4790716;30;20524;-86
2023/02/02 07:54:10;;;;;;;22.85;12.07;;;;;;;0.58;37.86;99830.94;4772730;30;20101;-86
2023/02/02 07:56:38;;;;;;;27.15;14.80;;;;;;;0.51;39.11;99817.09;4787366;29;20612;-90
2023/02/02 07:59:03;;;;;;;28.75;14.18;;;;;;;0.20;38.43;99831.19;4788869;29;20138;-86
2023/02/02 08:01:29;;;;;;;26.23;14.77;;;;;;;0.27;38.78;99831.88;4789260;29;20598;-87
2023/02/02 08:04:02;;;;;;;24.65;13.40;;;;;;;0.44;38.90;99832.19;4787416;30;20047;-86
2023/02/02 08:06:34;;;;;;;22.95;13.38;;;;;;;0.75;39.15;99822.47;4787916;30;20051;-86
2023/02/02 08:09:01;;;;;;;25.15;13.38;;;;;;;0.93;38.85;99816.63;4787135;30;20157;-87
2023/02/02 08:11:27;;;;;;;24.88;12.52;;;;;;;1.23;38.34;99819.13;4802210;29;20050;-86
2023/02/02 08:13:59;;;;;;;26.17;12.45;;;;;;;1.47;38.24;99813.03;4787008;30;20051;-87
2023/02/02 08:16:26;;;;;;;22.05;13.35;;;;;;;1.56;37.81;99806.56;4771351;30;20051;-87
2023/02/02 08:18:52;;;;;;;23.40;12.13;;;;;;;1.55;37.71;99821.50;4803203;29;20138;-89
2023/02/02 08:21:19;;;;;;;27.55;14.10;;;;;;;1.66;38.23;99819.34;4808393;29;20080;-88
2023/02/02 08:23:45;;;;;;;29.38;12.57;;;;;;;1.86;37.69;99815.13;4774902;30;20044;-87
2023/02/02 08:26:17;;;;;;;28.63;14.13;;;;;;;2.01;37.25;99819.84;4770467;30;20405;-83
2023/02/02 08:28:46;;;;;;;29.48;14.00;;;;;;;2.10;37.01;99811.56;4766617;30;20142;-88
2023/02/02 08:31:37;;;;;;;22.25;13.13;;;;;;;2.09;36.48;99811.63;4772884;30;20135;-82
2023/02/02 08:34:06;;;;;;;25.02;12.73;;;;;;;2.16;36.84;99813.13;4781904;30;20047;-87
2023/02/02 08:36:34;;;;;;;24.98;13.07;;;;;;;2.21;36.79;99815.56;4788184;29;20047;-86
2023/02/02 08:39:02;;;;;;;29.08;13.63;;;;;;;2.25;36.88;99810.13;4787816;30;20503;-83
2023/02/02 08:41:31;;;;;;;26.63;12.15;;;;;;;1.73;36.63;99800.66;4786679;30;20093;-88
2023/02/02 08:43:57;;;;;;;28.10;13.73;;;;;;;1.76;37.70;99803.19;4802636;29;20056;-86
2023/02/02 08:46:26;;;;;;;27.25;12.50;;;;;;;1.52;37.39;99800.53;4790612;29;20101;-85
2023/02/02 08:48:52;;;;;;;29.50;12.32;;;;;;;1.40;37.54;99795.72;4793204;30;20519;-84
2023/02/02 08:51:19;;;;;;;25.23;12.57;;;;;;;1.59;38.25;99803.81;4794496;29;20126;-86
2023/02/02 08:53:45;;;;;;;25.45;12.77;;;;;;;1.50;38.30;99776.00;4808184;29;20043;-89
2023/02/02 08:56:16;;;;;;;29.33;13.00;;;;;;;1.44;37.96;99785.00;4792346;30;20051;-83
2023/02/02 08:58:47;;;;;;;26.77;13.65;;;;;;;1.90;38.61;99785.94;4789522;29;20187;-84
2023/02/02 09:01:21;;;;;;;27.90;14.25;;;;;;;1.79;38.49;99779.38;4787600;30;20047;-81
2023/02/02 09:03:47;;;;;;;26.55;13.88;;;;;;;1.49;37.50;99784.84;4757306;30;20084;-81
2023/02/02 09:06:16;;;;;;;39.38;14.07;;;;;;;1.19;37.64;99782.38;4773630;30;20070;-84
2023/02/02 09:08:43;;;;;;;37.45;14.65;;;;;;;1.01;38.51;99788.25;4771654;30;20047;-85
2023/02/02 09:11:15;;;;;;;49.22;15.13;;;;;;;0.69;38.65;99782.31;4790793;29;20135;-86
2023/02/02 09:13:44;;;;;;;28.20;14.45;;;;;;;0.46;39.41;99763.78;4804695;29;20047;-84
2023/02/02 09:16:12;;;;;;;33.80;14.55;;;;;;;0.34;39.60;99769.41;4804217;29;20530;-85
2023/02/02 09:18:40;;;;;;;32.55;14.30;;;;;;;0.75;39.63;99775.97;4788597;30;20048;-83
2023/02/02 09:21:09;;;;;;;26.02;14.27;;;;;;;1.10;39.32;99771.31;4804083;29;20107;-89
2023/02/02 09:23:37;;;;;;;26.45;14.13;;;;;;;1.26;39.38;99766.38;4804691;29;20051;-83
2023/02/02 09:26:16;;;;;;;32.70;13.75;;;;;;;1.48;39.19;99762.06;4790607;30;20047;-84
2023/02/02 09:28:45;;;;;;;25.23;13.43;;;;;;;1.79;38.73;99758.28;4788933;29;20047;-83
2023/02/02 09:31:11;;;;;;;29.00;14.48;;;;;;;1.87;38.97;99750.94;4792166;30;20047;-82
2023/02/02 09:33:37;;;;;;;31.80;14.43;;;;;;;1.91;39.14;99753.41;4804163;29;20058;-85
2023/02/02 09:36:06;;;;;;;32.25;15.43;;;;;;;2.09;39.31;99748.34;4791260;29;20066;-84
2023/02/02 09:38:32;;;;;;;29.98;14.07;;;;;;;2.07;39.24;99751.06;4805866;29;20051;-86
2023/02/02 09:40:59;;;;;;;46.33;15.68;;;;;;;2.32;39.16;99747.44;4792372;30;20519;-85
2023/02/02 09:43:51;;;;;;;35.20;14.15;;;;;;;2.34;38.68;99756.16;4791902;30;20075;-84
2023/02/02 09:46:42;;;;;;;30.45;13.98;;;;;;;2.26;38.15;99750.31;4791284;30;20047;-84
2023/02/02 09:49:13;;;;;;;33.47;14.93;;;;;;;2.14;38.60;99749.91;4789407;30;20100;-86
2023/02/02 09:51:44;;;;;;;40.72;15.35;;;;;;;2.46;38.52;99749.53;4774521;30;20059;-86
2023/02/02 09:54:19;;;;;;;34.47;16.02;;;;;;;2.74;38.70;99751.88;4789687;30;20047;-86
2023/02/02 09:56:54;;;;;;;39.60;16.13;;;;;;;2.90;38.48;99752.97;4774145;30;20051;-85
2023/02/02 09:59:29;;;;;;;32.35;15.52;;;;;;;3.01;37.91;99758.69;4771420;30;20455;-86
2023/02/02 10:02:01;;;;;;;33.72;14.85;;;;;;;2.99;38.43;99752.59;4785111;30;20054;-85
2023/02/02 10:04:39;;;;;;;39.08;16.40;;;;;;;3.07;38.11;99761.03;4772725;30;20043;-85
2023/02/02 10:07:18;;;;;;;36.20;15.60;;;;;;;3.06;37.64;99755.81;4788030;30;20117;-83
2023/02/02 10:09:47;;;;;;;38.70;15.65;;;;;;;3.02;37.75;99763.03;4804106;29;20319;-88
2023/02/02 10:12:33;;;;;;;33.15;14.45;;;;;;;2.83;38.61;99772.66;4789652;30;20426;-86
2023/02/02 10:15:11;;;;;;;28.25;14.68;;;;;;;2.73;38.22;99771.28;4774676;30;20460;-87
2023/02/02 10:17:46;;;;;;;28.40;14.48;;;;;;;2.75;37.77;99778.25;4775758;30;20681;-87
2023/02/02 10:20:29;;;;;;;25.35;14.20;;;;;;;2.91;37.73;99775.81;4774676;30;20450;-89
2023/02/02 10:23:03;;;;;;;27.92;13.60;;;;;;;3.03;36.96;99780.56;4775079;30;20055;-88
2023/02/02 10:25:31;;;;;;;34.53;15.63;;;;;;;3.07;37.00;99784.81;4778167;30;20055;-92
2023/02/02 10:28:23;;;;;;;31.15;16.58;;;;;;;3.09;37.01;99785.63;4785248;30;20119;-95
2023/02/02 10:30:58;;;;;;;35.78;15.35;;;;;;;3.02;36.66;99778.88;4771162;30;20112;-88
2023/02/02 10:33:36;;;;;;;33.15;13.27;;;;;;;2.94;36.35;99783.63;4788753;30;20527;-86
2023/02/02 10:36:05;;;;;;;33.97;13.25;;;;;;;2.71;36.68;99786.31;4789903;29;20463;-87
2023/02/02 10:38:44;;;;;;;24.98;12.77;;;;;;;2.59;36.70;99785.91;4773548;30;20135;-86
2023/02/02 10:41:24;;;;;;;25.88;12.90;;;;;;;2.61;37.18;99784.06;4788865;30;20051;-89
2023/02/02 10:44:00;;;;;;;;;;;;;;;2.42;36.78;99793.66;4775392;30;20107;-87
2023/02/02 10:46:36;;;;;;;55.38;12.68;;;;;;;2.18;36.64;99782.25;4789380;30;19925;-86
2023/02/02 10:49:40;;;;;;;33.95;11.63;;;;;;;2.06;37.53;99786.22;4789532;30;20555;-85
2023/02/02 10:52:09;;;;;;;18.88;10.77;;;;;;;2.10;37.80;99785.19;4774059;30;20054;-87
2023/02/02 10:54:54;;;;;;;;;;;;;;;2.15;37.53;99799.06;4789237;30;20154;-87
2023/02/02 10:57:33;;;;;;;27.35;11.75;;;;;;;2.03;37.75;99799.56;4788620;30;19936;-90
2023/02/02 11:00:06;;;;;;;;;;;;;;;1.78;37.59;99802.22;4789930;30;20130;-87
2023/02/02 11:02:32;;;;;;;21.23;11.50;;;;;;;1.61;38.12;99809.88;4804751;29;19932;-90
2023/02/02 11:07:42;;;;;;;32.38;14.32;;;;;;;1.56;38.76;99812.69;4791831;30;20055;-89
2023/02/02 11:10:09;;;;;;;33.08;15.38;;;;;;;1.46;38.95;99816.56;4788408;29;20146;-90
2023/02/02 11:12:39;;;;;;;30.98;12.85;;;;;;;1.37;39.57;99816.88;4788288;30;20051;-88
2023/02/02 11:15:24;;;;;;;30.55;14.40;;;;;;;1.31;39.96;99811.81;4803667;29;20079;-91
2023/02/02 11:17:50;;;;;;;26.38;13.55;;;;;;;1.40;39.81;99820.28;4789455;30;20061;-87
2023/02/02 11:20:30;;;;;;;27.17;13.68;;;;;;;1.20;40.14;99820.09;4772965;30;20134;-88
2023/02/02 11:23:01;;;;;;;27.77;13.68;;;;;;;1.15;40.48;99822.88;4788341;30;20108;-89
2023/02/02 11:25:35;;;;;;;28.23;13.05;;;;;;;0.84;41.62;99816.94;4788238;30;20507;-90
2023/02/02 11:28:17;;;;;;;37.70;14.43;;;;;;;0.76;41.57;99811.91;4774617;30;20047;-86
2023/02/02 11:30:49;;;;;;;48.60;13.90;;;;;;;0.79;42.15;99808.31;4770354;30;20055;-86
2023/02/02 11:33:20;;;;;;;35.10;13.88;;;;;;;0.88;42.30;99815.91;4756029;30;20563;-87
2023/02/02 11:36:00;;;;;;;32.17;13.95;;;;;;;0.81;42.04;99827.56;4768827;30;20095;-87
2023/02/02 11:38:27;;;;;;;35.25;12.20;;;;;;;0.65;42.39;99817.53;4725135;30;20538;-86
2023/02/02 11:41:02;;;;;;;25.92;11.18;;;;;;;0.57;42.26;99829.22;4769394;30;20082;-87
2023/02/02 11:43:49;;;;;;;23.98;12.27;;;;;;;0.60;42.93;99837.88;4768662;30;20082;-84
2023/02/02 11:46:18;;;;;;;23.63;10.88;;;;;;;0.66;42.53;99827.13;4771237;30;20067;-87
2023/02/02 11:48:52;;;;;;;18.08;9.48;;;;;;;0.73;42.69;99826.03;4789175;30;20139;-85
2023/02/02 11:51:22;;;;;;;19.42;9.10;;;;;;;0.73;42.25;99826.03;4787273;30;20063;-87